Ana Sayfa
METAR-TAF:

METAR-TAF

Havaalanları :

Tajima, Japonya

Enlem: 35-31N, Boylam: 134-48E, yükseklik: 210 m

Güncel hava durumu gözlemi

Rapor saat 09:00 UTC de 6 saat ve 4 dakika önce yapıldı.
Rüzgar kuzeydan 9 kt
Sıcaklık 21°C
Nem 88%
Basınç 1003 hPa
Görüş mesafesi 10 km veya daha fazla
1000 ft yükseklikte az bulutlu
3000 ft yükseklikte parçalı bulutlu
5000 ft yükseklikte parçalı çok bulutlu

METAR: RJBT 270900Z 01009KT 9999 FEW010 SCT030 BKN050 21/19 Q1003

Saat: 00:04 (15:04 UTC)


TAF: eksik

4.000'den fazla havaalanı için hava durumu gözlemleri ve tahminleri (METAR ve TAF raporları).

Kullanılabilir istasyonlar harita üzerinde sarı ve kırmızı noktalarla gösterilir.

İstasyonun adını görmek için fareyi noktanın üzerinde gezdirin.

Sonrasında hava gözlem ve tahminlerini görmek için tıklayın.

Haritayı değiştirmek için: yaklaştırmak için siyah artı işaretli yeşil düğmeye ve uzaklaştırmak için de eksi işaretli düğmeye hızla tıklayın; bitişik haritalar için yeşil okları kullanın.


METAR-TAF: